createdAt,value
2018-01-10T00:01:26.057Z,1.97
2018-01-10T00:03:53.559Z,5.10
2018-01-10T00:06:21.083Z,2.87
2018-01-10T00:08:48.963Z,7.27
2018-01-10T00:11:16.473Z,4.63
2018-01-10T00:13:44.391Z,2.63
2018-01-10T00:16:12.278Z,5.10
2018-01-10T00:18:39.902Z,4.27
2018-01-10T00:21:07.398Z,8.13
2018-01-10T00:23:34.913Z,4.77
2018-01-10T00:26:03.176Z,7.47
2018-01-10T00:28:31.099Z,3.67
2018-01-10T00:30:59.015Z,2.93
2018-01-10T00:33:26.532Z,6.90
2018-01-10T00:35:54.431Z,3.13
2018-01-10T00:38:21.955Z,3.60
2018-01-10T00:40:49.851Z,7.03
2018-01-10T00:43:17.738Z,3.00
2018-01-10T00:45:45.250Z,4.10
2018-01-10T00:48:13.148Z,3.07
2018-01-10T00:50:41.059Z,3.80
2018-01-10T00:53:08.582Z,2.17
2018-01-10T00:55:36.098Z,3.50
2018-01-10T00:58:03.602Z,2.47
2018-01-10T01:00:31.119Z,3.33
2018-01-10T01:02:58.614Z,4.93
2018-01-10T01:05:26.894Z,2.03
2018-01-10T01:07:54.782Z,2.30
2018-01-10T01:10:22.690Z,1.97
2018-01-10T01:12:50.190Z,2.43
2018-01-10T01:15:17.702Z,3.23
2018-01-10T01:17:45.234Z,3.13
2018-01-10T01:20:13.866Z,3.80
2018-01-10T01:22:42.139Z,1.60
2018-01-10T01:25:09.626Z,2.93
2018-01-10T01:27:37.555Z,3.87
2018-01-10T01:30:05.055Z,1.50
2018-01-10T01:32:33.726Z,1.13
2018-01-10T01:35:01.222Z,3.87
2018-01-10T01:37:29.127Z,3.40
2018-01-10T01:39:57.015Z,3.17
2018-01-10T01:42:25.296Z,1.30
2018-01-10T01:44:53.271Z,5.23
2018-01-10T01:47:20.791Z,6.53
2018-01-10T01:49:48.294Z,5.27
2018-01-10T01:52:15.807Z,5.80
2018-01-10T01:54:43.728Z,5.80
2018-01-10T01:57:11.247Z,6.63
2018-01-10T01:59:39.541Z,2.73
2018-01-10T02:02:07.043Z,2.30
2018-01-10T02:04:34.560Z,1.37
2018-01-10T02:07:02.060Z,5.93
2018-01-10T02:09:29.595Z,1.63
2018-01-10T02:11:57.093Z,7.57
2018-01-10T02:14:25.047Z,2.00
2018-01-10T02:16:52.943Z,3.63
2018-01-10T02:19:20.435Z,2.03
2018-01-10T02:21:47.963Z,1.27
2018-01-10T02:24:15.455Z,1.83
2018-01-10T02:26:42.976Z,1.33
2018-01-10T02:29:11.231Z,6.20
2018-01-10T02:31:39.139Z,1.20
2018-01-10T02:34:07.030Z,2.27
2018-01-10T02:36:34.950Z,3.23
2018-01-10T02:39:02.444Z,3.07
2018-01-10T02:41:30.327Z,5.60
2018-01-10T02:43:58.247Z,4.23
2018-01-10T02:46:25.773Z,3.77
2018-01-10T02:48:53.299Z,3.63
2018-01-10T02:51:21.189Z,2.90
2018-01-10T02:53:49.482Z,1.77
2018-01-10T02:56:16.970Z,1.60
2018-01-10T02:58:44.500Z,1.67
2018-01-10T03:01:12.394Z,2.60
2018-01-10T03:03:40.413Z,1.77
2018-01-10T03:06:08.311Z,3.53
2018-01-10T03:08:35.933Z,2.17
2018-01-10T03:11:03.427Z,2.77
2018-01-10T03:13:30.927Z,2.93
2018-01-10T03:15:58.842Z,3.73
2018-01-10T03:18:26.742Z,1.23
2018-01-10T03:20:55.023Z,4.73
2018-01-10T03:23:22.921Z,2.10
2018-01-10T03:25:51.215Z,2.97
2018-01-10T03:28:19.114Z,3.00
2018-01-10T03:30:47.035Z,5.70
2018-01-10T03:33:14.536Z,3.90
2018-01-10T03:35:42.443Z,3.53
2018-01-10T03:38:09.965Z,2.97
2018-01-10T03:43:58.966Z,1.77
2018-01-10T03:46:26.467Z,2.47
2018-01-10T03:48:53.978Z,2.43
2018-01-10T03:51:21.474Z,2.40
2018-01-10T03:53:49.385Z,3.40
2018-01-10T03:56:17.275Z,4.17
2018-01-10T03:58:45.187Z,2.30
2018-01-10T04:01:13.831Z,1.13
2018-01-10T04:03:41.764Z,1.83
2018-01-10T04:06:09.265Z,2.77
2018-01-10T04:08:36.790Z,2.13
2018-01-10T04:11:04.293Z,5.63
2018-01-10T04:13:32.218Z,5.37
2018-01-10T04:15:59.732Z,1.90
2018-01-10T04:18:27.635Z,2.27
2018-01-10T04:20:55.174Z,0.80
2018-01-10T04:23:23.066Z,1.40
2018-01-10T04:25:50.583Z,4.00
2018-01-10T04:28:18.466Z,2.00
2018-01-10T04:30:46.381Z,3.57
2018-01-10T04:33:13.886Z,2.27
2018-01-10T04:35:41.406Z,4.20
2018-01-10T04:38:09.304Z,1.53
2018-01-10T04:40:36.851Z,1.40
2018-01-10T04:43:04.342Z,2.30
2018-01-10T04:45:33.004Z,1.83
2018-01-10T04:48:00.910Z,10.30
2018-01-10T04:50:28.815Z,2.53
2018-01-10T04:52:57.471Z,2.10
2018-01-10T04:55:25.362Z,2.00
2018-01-10T04:57:53.274Z,2.53
2018-01-10T05:00:21.170Z,3.07
2018-01-10T05:02:48.699Z,2.60
2018-01-10T05:05:16.599Z,2.33
2018-01-10T05:07:44.512Z,3.67
2018-01-10T05:10:12.453Z,1.87
2018-01-10T05:12:39.997Z,3.83
2018-01-10T05:15:07.487Z,3.73
2018-01-10T05:17:35.394Z,2.27
2018-01-10T05:20:02.878Z,1.47
2018-01-10T05:22:30.775Z,1.37
2018-01-10T05:24:58.678Z,1.80
2018-01-10T05:27:26.947Z,1.93
2018-01-10T05:29:54.863Z,2.73
2018-01-10T05:32:22.358Z,4.27
2018-01-10T05:34:49.898Z,2.07
2018-01-10T05:37:17.809Z,2.70
2018-01-10T05:39:45.331Z,1.83
2018-01-10T05:42:13.602Z,2.37
2018-01-10T05:44:41.517Z,1.37
2018-01-10T05:47:10.361Z,5.47
2018-01-10T05:49:38.274Z,3.47
2018-01-10T05:52:06.172Z,2.10
2018-01-10T05:54:34.065Z,3.00
2018-01-10T05:57:01.975Z,2.43
2018-01-10T05:59:29.876Z,2.60
2018-01-10T06:01:57.680Z,7.90
2018-01-10T06:04:26.518Z,3.27
2018-01-10T06:06:54.838Z,5.73
2018-01-10T06:09:22.742Z,2.63
2018-01-10T06:11:50.260Z,5.17
2018-01-10T06:14:17.804Z,2.57
2018-01-10T06:16:46.979Z,6.93
2018-01-10T06:19:14.878Z,2.20
2018-01-10T06:21:42.827Z,4.10
2018-01-10T06:24:10.323Z,1.90
2018-01-10T06:26:37.960Z,1.37
2018-01-10T06:29:05.929Z,2.60
2018-01-10T06:31:33.851Z,2.47
2018-01-10T06:34:01.750Z,1.00
2018-01-10T06:36:29.279Z,3.13
2018-01-10T06:38:56.770Z,2.20
2018-01-10T06:41:24.250Z,3.37
2018-01-10T06:43:51.777Z,3.57
2018-01-10T06:46:19.678Z,3.13
2018-01-10T06:48:47.591Z,2.07
2018-01-10T06:51:15.082Z,1.60
2018-01-10T06:53:42.986Z,5.73
2018-01-10T06:56:11.242Z,3.00
2018-01-10T06:58:39.181Z,2.77
2018-01-10T07:01:06.671Z,4.60
2018-01-10T07:03:35.322Z,6.37
2018-01-10T07:06:03.218Z,1.77
2018-01-10T07:08:30.734Z,4.00
2018-01-10T07:10:58.626Z,3.00
2018-01-10T07:13:26.547Z,6.83
2018-01-10T07:15:54.056Z,3.83
2018-01-10T07:18:22.354Z,3.80
2018-01-10T07:20:50.253Z,2.47
2018-01-10T07:23:18.162Z,5.13
2018-01-10T07:25:46.050Z,3.70
2018-01-10T07:28:13.562Z,4.00
2018-01-10T07:30:41.453Z,3.87
2018-01-10T07:33:08.969Z,7.27
2018-01-10T07:35:36.459Z,4.77
2018-01-10T07:38:04.363Z,3.13
2018-01-10T07:40:32.262Z,2.83
2018-01-10T07:42:59.794Z,3.20
2018-01-10T07:45:27.680Z,2.27
2018-01-10T07:47:55.194Z,4.17
2018-01-10T07:50:22.690Z,1.50
2018-01-10T07:52:50.612Z,2.60
2018-01-10T07:55:18.108Z,1.83
2018-01-10T07:57:46.022Z,4.17
2018-01-10T08:00:13.916Z,2.87
2018-01-10T08:02:41.807Z,2.57
2018-01-10T08:05:09.314Z,1.30
2018-01-10T08:07:37.211Z,2.37
2018-01-10T08:10:04.725Z,5.47
2018-01-10T08:12:32.231Z,1.37
2018-01-10T08:14:59.748Z,1.57
2018-01-10T08:17:27.638Z,2.10
2018-01-10T08:19:55.151Z,2.10
2018-01-10T08:22:22.654Z,2.60
2018-01-10T08:24:50.190Z,2.77
2018-01-10T08:27:17.682Z,4.17
2018-01-10T08:29:45.591Z,3.90
2018-01-10T08:32:13.518Z,6.00
2018-01-10T08:34:41.419Z,8.27
2018-01-10T08:37:08.946Z,6.33
2018-01-10T08:39:36.839Z,7.57
2018-01-10T08:42:04.372Z,4.37
2018-01-10T08:44:31.874Z,6.07
2018-01-10T08:47:00.152Z,5.07
2018-01-10T08:49:27.658Z,4.07
2018-01-10T08:51:55.973Z,2.67
2018-01-10T08:54:23.868Z,6.53
2018-01-10T08:56:51.366Z,6.83
2018-01-10T08:59:18.876Z,4.87
2018-01-10T09:01:46.386Z,5.90
2018-01-10T09:04:13.911Z,2.57
2018-01-10T09:06:41.426Z,6.40
2018-01-10T09:09:08.952Z,9.03
2018-01-10T09:11:36.445Z,6.20
2018-01-10T09:14:04.368Z,9.87
2018-01-10T09:16:31.866Z,4.90
2018-01-10T09:18:59.394Z,9.70
2018-01-10T09:21:26.887Z,6.40
2018-01-10T09:23:54.389Z,2.30
2018-01-10T09:26:22.294Z,4.70
2018-01-10T09:28:49.800Z,1.97
2018-01-10T09:31:17.305Z,1.40
2018-01-10T09:33:44.790Z,3.40
2018-01-10T09:36:13.447Z,1.27
2018-01-10T09:38:41.377Z,2.33
2018-01-10T09:41:09.662Z,3.10
2018-01-10T09:43:37.158Z,2.30
2018-01-10T09:46:05.098Z,5.43
2018-01-10T09:48:32.619Z,1.43
2018-01-10T09:51:00.115Z,2.17
2018-01-10T09:53:27.628Z,2.10
2018-01-10T09:55:55.518Z,1.97
2018-01-10T09:58:23.807Z,1.77
2018-01-10T10:00:51.308Z,1.63
2018-01-10T10:03:18.824Z,2.63
2018-01-10T10:05:46.314Z,2.23
2018-01-10T10:08:14.226Z,2.40
2018-01-10T10:10:41.714Z,2.67
2018-01-10T10:13:09.247Z,5.60
2018-01-10T10:15:37.152Z,3.17
2018-01-10T10:18:04.758Z,2.43
2018-01-10T10:20:32.278Z,3.43
2018-01-10T10:23:00.179Z,1.83
2018-01-10T10:25:27.728Z,2.13
2018-01-10T10:27:55.189Z,4.07
2018-01-10T10:30:23.107Z,8.03
2018-01-10T10:32:50.598Z,2.50
2018-01-10T10:35:18.560Z,4.37
2018-01-10T10:37:46.453Z,4.37
2018-01-10T10:40:13.962Z,2.57
2018-01-10T10:42:41.454Z,2.70
2018-01-10T10:45:08.978Z,9.93
2018-01-10T10:47:36.470Z,4.13
2018-01-10T10:50:05.109Z,4.57
2018-01-10T10:52:34.130Z,4.93
2018-01-10T10:55:03.312Z,6.27
2018-01-10T10:57:30.861Z,3.90
2018-01-10T10:59:58.346Z,5.57
2018-01-10T11:02:25.876Z,3.93
2018-01-10T11:04:53.381Z,4.60
2018-01-10T11:07:21.299Z,6.70
2018-01-10T11:09:48.803Z,5.07
2018-01-10T11:12:17.478Z,4.93
2018-01-10T11:14:44.974Z,6.23
2018-01-10T11:17:12.465Z,7.60
2018-01-10T11:19:40.375Z,5.07
2018-01-10T11:22:07.870Z,5.53
2018-01-10T11:24:35.786Z,6.63
2018-01-10T11:27:04.101Z,4.93
2018-01-10T11:29:31.744Z,4.47
2018-01-10T11:31:59.638Z,6.57
2018-01-10T11:34:27.542Z,8.40
2018-01-10T11:36:55.438Z,7.07
2018-01-10T11:39:23.346Z,7.90
2018-01-10T11:41:50.831Z,6.17
2018-01-10T11:44:18.720Z,6.60
2018-01-10T11:46:46.618Z,4.90
2018-01-10T11:49:14.519Z,7.77
2018-01-10T11:51:43.174Z,10.00
2018-01-10T11:54:10.674Z,12.67
2018-01-10T11:56:38.191Z,6.40
2018-01-10T11:59:05.684Z,6.67
2018-01-10T12:01:33.214Z,5.57
2018-01-10T12:04:01.221Z,6.07
2018-01-10T12:06:30.105Z,4.40
2018-01-10T12:08:57.602Z,8.00
2018-01-10T12:11:26.594Z,9.00
2018-01-10T12:13:54.502Z,7.50
2018-01-10T12:16:21.994Z,5.37
2018-01-10T12:18:49.914Z,5.67
2018-01-10T12:21:17.410Z,6.53
2018-01-10T12:23:44.929Z,7.47
2018-01-10T12:26:12.421Z,6.43
2018-01-10T12:28:39.955Z,5.43
2018-01-10T12:31:07.453Z,4.53
2018-01-10T12:33:34.997Z,6.63
2018-01-10T12:36:02.502Z,9.47
2018-01-10T12:38:30.394Z,10.77
2018-01-10T12:40:58.302Z,7.30
2018-01-10T12:43:26.569Z,6.57
2018-01-10T12:45:54.499Z,7.23
2018-01-10T12:48:21.995Z,8.27
2018-01-10T12:50:49.903Z,9.37
2018-01-10T12:53:17.799Z,8.87
2018-01-10T12:55:45.399Z,7.90
2018-01-10T12:58:13.675Z,9.33
2018-01-10T13:00:41.574Z,9.17
2018-01-10T13:03:09.096Z,14.70
2018-01-10T13:05:36.591Z,11.03
2018-01-10T13:08:04.106Z,9.77
2018-01-10T13:10:32.015Z,7.77
2018-01-10T13:12:59.926Z,8.00
2018-01-10T13:15:27.822Z,7.77
2018-01-10T13:17:55.342Z,13.47
2018-01-10T13:20:23.281Z,9.70
2018-01-10T13:22:50.769Z,12.33
2018-01-10T13:25:18.286Z,10.30
2018-01-10T13:27:46.174Z,9.27
2018-01-10T13:30:14.074Z,6.67
2018-01-10T13:32:41.566Z,9.53
2018-01-10T13:35:09.489Z,14.00
2018-01-10T13:37:37.388Z,7.60
2018-01-10T13:40:04.915Z,11.03
2018-01-10T13:42:32.809Z,9.83
2018-01-10T13:45:00.340Z,10.93
2018-01-10T13:47:28.622Z,8.53
2018-01-10T13:49:56.118Z,11.57
2018-01-10T13:52:23.639Z,10.20
2018-01-10T13:54:51.131Z,9.77
2018-01-10T13:57:19.063Z,7.33
2018-01-10T13:59:46.954Z,7.40
2018-01-10T14:02:15.251Z,11.33
2018-01-10T14:04:43.145Z,11.20
2018-01-10T14:07:11.423Z,10.27
2018-01-10T14:09:39.678Z,9.97
2018-01-10T14:12:07.968Z,11.80
2018-01-10T14:14:36.243Z,11.90
2018-01-10T14:17:04.144Z,11.67
2018-01-10T14:19:31.661Z,13.10
2018-01-10T14:21:59.157Z,14.40
2018-01-10T14:24:27.067Z,15.00
2018-01-10T14:26:54.989Z,10.47
2018-01-10T14:29:22.516Z,11.53
2018-01-10T14:31:50.003Z,16.70
2018-01-10T14:34:17.525Z,15.47
2018-01-10T14:36:45.417Z,14.33
2018-01-10T14:39:13.337Z,39.40
2018-01-10T14:41:40.830Z,13.73
2018-01-10T14:44:08.322Z,16.43
2018-01-10T14:46:36.227Z,19.93
2018-01-10T14:49:03.718Z,17.63
2018-01-10T14:51:31.237Z,19.03
2018-01-10T14:53:58.738Z,16.13
2018-01-10T14:56:27.014Z,17.57
2018-01-10T14:58:55.020Z,16.57
2018-01-10T15:01:22.954Z,15.50
2018-01-10T15:03:50.846Z,15.43
2018-01-10T15:06:19.122Z,12.77
2018-01-10T15:08:47.399Z,16.83
2018-01-10T15:11:14.894Z,19.57
2018-01-10T15:13:42.411Z,12.57
2018-01-10T15:16:09.910Z,14.73
2018-01-10T15:18:37.827Z,23.20
2018-01-10T15:21:05.330Z,17.63
2018-01-10T15:23:32.867Z,18.77
2018-01-10T15:26:00.362Z,12.47
2018-01-10T15:28:29.014Z,11.70
2018-01-10T15:30:57.318Z,14.20
2018-01-10T15:33:25.314Z,15.80
2018-01-10T15:35:53.575Z,11.67
2018-01-10T15:38:21.458Z,12.20
2018-01-10T15:40:48.982Z,12.33
2018-01-10T15:43:16.866Z,12.00
2018-01-10T15:45:44.786Z,13.07
2018-01-10T15:48:12.289Z,14.27
2018-01-10T15:50:39.906Z,41.80
2018-01-10T15:53:07.808Z,21.83
2018-01-10T15:55:36.098Z,17.77
2018-01-10T15:58:03.607Z,29.37
2018-01-10T16:00:31.555Z,28.30
2018-01-10T16:02:59.057Z,15.90
2018-01-10T16:05:26.971Z,11.57
2018-01-10T16:07:54.891Z,18.80
2018-01-10T16:10:23.202Z,17.43
2018-01-10T16:12:50.692Z,13.30
2018-01-10T16:15:18.187Z,20.57
2018-01-10T16:17:45.702Z,19.43
2018-01-10T16:20:13.595Z,14.10
2018-01-10T16:22:41.119Z,21.50
2018-01-10T16:25:09.023Z,16.03
2018-01-10T16:27:36.546Z,18.27
2018-01-10T16:30:04.480Z,19.50
2018-01-10T16:32:32.394Z,16.87
2018-01-10T16:35:00.282Z,12.80
2018-01-10T16:37:28.935Z,18.50
2018-01-10T16:39:56.430Z,12.77
2018-01-10T16:42:24.344Z,17.53
2018-01-10T16:44:51.835Z,15.67
2018-01-10T16:47:19.358Z,18.90
2018-01-10T16:49:47.255Z,14.33
2018-01-10T16:52:14.772Z,17.77
2018-01-10T16:54:42.264Z,15.87
2018-01-10T16:57:09.785Z,17.53
2018-01-10T16:59:37.318Z,18.73
2018-01-10T17:02:05.216Z,12.63
2018-01-10T17:04:32.743Z,11.53
2018-01-10T17:07:00.642Z,16.70
2018-01-10T17:09:28.169Z,15.33
2018-01-10T17:11:56.072Z,18.67
2018-01-10T17:14:23.597Z,16.77
2018-01-10T17:16:51.495Z,13.87
2018-01-10T17:19:19.411Z,15.07
2018-01-10T17:21:47.294Z,9.57
2018-01-10T17:24:15.329Z,11.97
2018-01-10T17:26:43.594Z,12.13
2018-01-10T17:29:11.486Z,14.97
2018-01-10T17:31:39.418Z,11.53
2018-01-10T17:34:06.905Z,10.83
2018-01-10T17:36:34.438Z,13.60
2018-01-10T17:39:02.343Z,12.10
2018-01-10T17:41:30.631Z,13.27
2018-01-10T17:43:59.258Z,17.80
2018-01-10T17:46:27.167Z,15.37
2018-01-10T17:48:55.119Z,21.10
2018-01-10T17:51:22.618Z,16.03
2018-01-10T17:53:50.510Z,18.90
2018-01-10T17:56:18.030Z,26.00
2018-01-10T17:58:45.914Z,14.17
2018-01-10T18:01:13.413Z,22.90
2018-01-10T18:03:40.934Z,18.80
2018-01-10T18:06:08.822Z,27.80
2018-01-10T18:08:36.748Z,24.57
2018-01-10T18:11:04.265Z,22.77
2018-01-10T18:13:31.863Z,29.17
2018-01-10T18:15:59.792Z,26.03
2018-01-10T18:18:27.701Z,27.17
2018-01-10T18:20:55.601Z,27.97
2018-01-10T18:23:23.534Z,23.90
2018-01-10T18:25:51.426Z,19.70
2018-01-10T18:28:19.370Z,21.77
2018-01-10T18:30:46.866Z,19.53
2018-01-10T18:33:14.360Z,15.47
2018-01-10T18:35:41.889Z,30.47
2018-01-10T18:38:09.402Z,20.93
2018-01-10T18:40:37.323Z,15.73
2018-01-10T18:43:04.826Z,18.70
2018-01-10T18:45:32.737Z,15.90
2018-01-10T18:48:00.251Z,14.30
2018-01-10T18:50:28.540Z,14.23
2018-01-10T18:52:56.055Z,22.00
2018-01-10T18:55:23.962Z,13.63
2018-01-10T18:57:52.230Z,14.27
2018-01-10T19:00:19.910Z,17.97
2018-01-10T19:02:47.435Z,20.43
2018-01-10T19:05:15.496Z,16.03
2018-01-10T19:07:43.375Z,20.93
2018-01-10T19:10:11.273Z,19.20
2018-01-10T19:12:38.814Z,12.40
2018-01-10T19:15:06.786Z,18.53
2018-01-10T19:17:34.750Z,13.87
2018-01-10T19:20:02.684Z,17.60
2018-01-10T19:22:30.632Z,19.67
2018-01-10T19:24:58.927Z,13.33
2018-01-10T19:27:26.447Z,19.23
2018-01-10T19:29:53.958Z,6.43
2018-01-10T19:32:22.995Z,8.23
2018-01-10T19:34:52.015Z,7.93
2018-01-10T19:37:19.540Z,7.80
2018-01-10T19:39:47.794Z,8.57
2018-01-10T19:42:15.722Z,8.43
2018-01-10T19:44:44.354Z,7.63
2018-01-10T19:47:11.858Z,9.57
2018-01-10T19:49:39.778Z,9.50
2018-01-10T19:52:08.090Z,14.40
2018-01-10T19:54:37.008Z,9.27
2018-01-10T19:57:04.918Z,8.77
2018-01-10T19:59:33.579Z,14.43
2018-01-10T20:02:01.486Z,10.60
2018-01-10T20:04:29.422Z,11.37
